Time;durP1;ratioP1;P1;durP2;ratioP2;P2;SDS_P1;SDS_P2;PMS_P1;PMS_P2;Temp;Humidity;BMP_temperature;BMP_pressure;BME280_temperature;BME280_humidity;BME280_pressure;Samples;Min_cycle;Max_cycle;Signal;HPM_P1;HPM_P2
2022/12/18 00:01:16;;;;;;;27.27;10.32;;;;;;;;;;5141936;27;20047;-57
2022/12/18 00:03:42;;;;;;;;;;;;;;;;;;5141950;27;20085;-57
2022/12/18 00:06:09;;;;;;;22.77;9.63;;;;;;;;;;5142289;27;19995;-58
2022/12/18 00:08:36;;;;;;;26.00;10.88;;;;;;;;;;5142261;27;20685;-57
2022/12/18 00:11:06;;;;;;;37.20;18.00;;;;;;;;;;5142341;27;20096;-57
2022/12/18 00:13:33;;;;;;;42.58;17.83;;;;;;;;;;5142553;27;20038;-57
2022/12/18 00:16:03;;;;;;;27.40;13.43;;;;;;;;;;5141332;27;20066;-58
2022/12/18 00:18:29;;;;;;;30.13;14.38;;;;;;;;;;5141384;27;20035;-58
2022/12/18 00:20:59;;;;;;;22.08;9.73;;;;;;;;;;5143892;27;20043;-57
2022/12/18 00:23:25;;;;;;;25.10;12.05;;;;;;;;;;5140984;27;20119;-57
2022/12/18 00:25:51;;;;;;;25.90;11.45;;;;;;;;;;5139261;27;20039;-57
2022/12/18 00:28:17;;;;;;;27.48;11.52;;;;;;;;;;5142702;27;20088;-57
2022/12/18 00:30:43;;;;;;;22.42;10.70;;;;;;;;;;5142616;27;20043;-57
2022/12/18 00:33:09;;;;;;;28.60;12.88;;;;;;;;;;5141059;27;20039;-57
2022/12/18 00:35:35;;;;;;;28.95;13.57;;;;;;;;;;5137856;27;20042;-57
2022/12/18 00:38:01;;;;;;;21.85;10.35;;;;;;;;;;5140755;27;20123;-58
2022/12/18 00:40:27;;;;;;;26.40;11.77;;;;;;;;;;5133639;27;20079;-57
2022/12/18 00:42:57;;;;;;;21.42;9.88;;;;;;;;;;5141827;27;20516;-57
2022/12/18 00:45:27;;;;;;;16.63;8.35;;;;;;;;;;5138791;27;20054;-58
2022/12/18 00:47:53;;;;;;;20.58;10.60;;;;;;;;;;5142495;27;20061;-57
2022/12/18 00:50:19;;;;;;;24.60;9.25;;;;;;;;;;5143700;27;20038;-57
2022/12/18 00:52:45;;;;;;;24.48;10.48;;;;;;;;;;5141571;27;20682;-57
2022/12/18 00:55:12;;;;;;;23.70;9.65;;;;;;;;;;5141389;27;20088;-57
2022/12/18 00:57:38;;;;;;;25.77;10.40;;;;;;;;;;5142603;27;20043;-57
2022/12/18 01:00:06;;;;;;;29.55;13.43;;;;;;;;;;5142652;27;20092;-57
2022/12/18 01:02:32;;;;;;;28.80;12.57;;;;;;;;;;5142524;27;20047;-57
2022/12/18 01:04:58;;;;;;;33.80;13.70;;;;;;;;;;5140183;27;20616;-57
2022/12/18 01:07:24;;;;;;;34.95;15.88;;;;;;;;;;5138902;27;20051;-58
2022/12/18 01:09:50;;;;;;;21.83;11.50;;;;;;;;;;5138836;27;20043;-57
2022/12/18 01:12:16;;;;;;;23.45;10.43;;;;;;;;;;5138686;27;20228;-58
2022/12/18 01:14:43;;;;;;;24.50;10.63;;;;;;;;;;5145625;27;20051;-57
2022/12/18 01:17:09;;;;;;;25.05;11.65;;;;;;;;;;5147960;27;20042;-57
2022/12/18 01:19:35;;;;;;;29.58;11.27;;;;;;;;;;5145826;27;20043;-57
2022/12/18 01:22:01;;;;;;;27.73;10.85;;;;;;;;;;5146467;27;20042;-57
2022/12/18 01:24:28;;;;;;;25.98;10.88;;;;;;;;;;5144643;27;20082;-58
2022/12/18 01:26:54;;;;;;;23.80;10.23;;;;;;;;;;5146752;27;20061;-58
2022/12/18 01:29:20;;;;;;;27.67;12.07;;;;;;;;;;5146888;27;20039;-58
2022/12/18 01:31:46;;;;;;;26.58;10.68;;;;;;;;;;5145224;27;20043;-57
2022/12/18 01:34:14;;;;;;;24.77;10.48;;;;;;;;;;5142796;27;20043;-57
2022/12/18 01:36:40;;;;;;;24.40;12.65;;;;;;;;;;5141211;27;20134;-61
2022/12/18 01:39:14;;;;;;;23.55;10.50;;;;;;;;;;5144184;27;20035;-57
2022/12/18 01:44:44;;;;;;;26.33;10.05;;;;;;;;;;5141543;27;20054;-57
2022/12/18 01:47:10;;;;;;;24.38;9.85;;;;;;;;;;5144437;27;20047;-57
2022/12/18 01:49:36;;;;;;;26.38;10.02;;;;;;;;;;5143530;27;20047;-57
2022/12/18 01:52:02;;;;;;;20.88;9.98;;;;;;;;;;5146365;27;20073;-57
2022/12/18 01:54:28;;;;;;;24.65;9.32;;;;;;;;;;5140968;27;20043;-57
2022/12/18 01:56:54;;;;;;;23.63;9.90;;;;;;;;;;5145253;27;20027;-58
2022/12/18 01:59:20;;;;;;;22.98;10.20;;;;;;;;;;5143522;27;21961;-58
2022/12/18 02:01:46;;;;;;;23.42;10.38;;;;;;;;;;5144943;27;20043;-57
2022/12/18 02:04:23;;;;;;;26.85;11.02;;;;;;;;;;5143212;27;20473;-57
2022/12/18 02:06:57;;;;;;;19.42;9.50;;;;;;;;;;5138602;27;20063;-57
2022/12/18 02:09:30;;;;;;;22.67;9.85;;;;;;;;;;5142484;27;20042;-58
2022/12/18 02:11:56;;;;;;;25.52;11.85;;;;;;;;;;5146053;27;20646;-57
2022/12/18 02:14:28;;;;;;;22.77;10.40;;;;;;;;;;5143233;27;20164;-57
2022/12/18 02:17:12;;;;;;;25.90;11.50;;;;;;;;;;5143669;27;20074;-59
2022/12/18 02:19:48;;;;;;;23.70;10.93;;;;;;;;;;5142241;27;20059;-59
2022/12/18 02:22:29;;;;;;;24.98;10.52;;;;;;;;;;5146078;27;20467;-59
2022/12/18 02:25:21;;;;;;;24.40;12.25;;;;;;;;;;5144464;27;20039;-59
2022/12/18 02:27:49;;;;;;;26.05;11.93;;;;;;;;;;5144896;27;20035;-59
2022/12/18 02:30:16;;;;;;;27.17;10.95;;;;;;;;;;5144911;27;20166;-59
2022/12/18 02:32:44;;;;;;;28.20;11.15;;;;;;;;;;5145773;27;20039;-59
2022/12/18 02:35:13;;;;;;;28.42;10.52;;;;;;;;;;5138048;27;20138;-59
2022/12/18 02:37:40;;;;;;;21.42;10.40;;;;;;;;;;5140930;27;20092;-60
2022/12/18 02:40:07;;;;;;;26.40;11.27;;;;;;;;;;5144635;27;20053;-59
2022/12/18 02:42:33;;;;;;;28.40;12.38;;;;;;;;;;5144009;27;20041;-59
2022/12/18 02:44:59;;;;;;;25.58;11.45;;;;;;;;;;5141995;27;20047;-59
2022/12/18 02:47:28;;;;;;;20.73;10.77;;;;;;;;;;5144403;27;20172;-59
2022/12/18 02:49:58;;;;;;;24.92;10.88;;;;;;;;;;5137655;27;20043;-59
2022/12/18 02:52:47;;;;;;;22.92;11.10;;;;;;;;;;5143174;27;20051;-60
2022/12/18 02:55:16;;;;;;;23.27;10.18;;;;;;;;;;5140373;27;20885;-59
2022/12/18 02:58:05;;;;;;;23.88;10.90;;;;;;;;;;5139504;27;20693;-60
2022/12/18 03:00:38;;;;;;;23.17;11.10;;;;;;;;;;5138210;27;20737;-59
2022/12/18 03:03:07;;;;;;;25.35;10.10;;;;;;;;;;5139708;27;20571;-58
2022/12/18 03:05:37;;;;;;;20.42;9.93;;;;;;;;;;5141024;27;21938;-59
2022/12/18 03:08:23;;;;;;;29.08;10.73;;;;;;;;;;5139648;27;20039;-58
2022/12/18 03:10:56;;;;;;;29.60;11.43;;;;;;;;;;5140744;27;20070;-58
2022/12/18 03:13:28;;;;;;;20.70;11.07;;;;;;;;;;5142322;27;20046;-59
2022/12/18 03:15:56;;;;;;;23.77;10.57;;;;;;;;;;5143974;27;21171;-58
2022/12/18 03:18:37;;;;;;;21.75;9.82;;;;;;;;;;5141310;27;20115;-59
2022/12/18 03:21:04;;;;;;;26.33;12.32;;;;;;;;;;5142226;27;20580;-59
2022/12/18 03:23:34;;;;;;;25.05;10.77;;;;;;;;;;5142536;27;20039;-59
2022/12/18 03:26:02;;;;;;;31.42;13.43;;;;;;;;;;5144582;27;20039;-59
2022/12/18 03:28:30;;;;;;;22.30;10.23;;;;;;;;;;5141741;27;20544;-59
2022/12/18 03:30:59;;;;;;;22.23;10.40;;;;;;;;;;5139468;27;20038;-60
2022/12/18 03:33:31;;;;;;;22.90;12.75;;;;;;;;;;5137855;27;20231;-58
2022/12/18 03:35:57;;;;;;;17.85;7.57;;;;;;;;;;5138680;27;20117;-58
2022/12/18 03:38:23;;;;;;;28.98;12.52;;;;;;;;;;5138861;27;20540;-59
2022/12/18 03:40:54;;;;;;;31.25;12.25;;;;;;;;;;5140359;27;20547;-59
2022/12/18 03:43:26;;;;;;;25.77;11.65;;;;;;;;;;5140475;27;20050;-58
2022/12/18 03:45:56;;;;;;;17.13;9.77;;;;;;;;;;5140276;27;20039;-59
2022/12/18 03:48:29;;;;;;;25.30;11.00;;;;;;;;;;5141759;27;20039;-58
2022/12/18 03:51:01;;;;;;;27.83;9.88;;;;;;;;;;5141625;27;20035;-59
2022/12/18 03:53:46;;;;;;;27.65;10.73;;;;;;;;;;5135484;27;20159;-59
2022/12/18 03:56:13;;;;;;;23.88;10.07;;;;;;;;;;5142056;27;21206;-58
2022/12/18 03:58:41;;;;;;;20.92;10.43;;;;;;;;;;5139980;27;20157;-59
2022/12/18 04:01:08;;;;;;;31.90;11.10;;;;;;;;;;5137954;27;20062;-59
2022/12/18 04:03:34;;;;;;;21.42;10.48;;;;;;;;;;5136441;27;20043;-59
2022/12/18 04:06:01;;;;;;;22.33;9.75;;;;;;;;;;5138097;27;20084;-58
2022/12/18 04:08:27;;;;;;;24.50;11.95;;;;;;;;;;5138260;27;22179;-60
2022/12/18 04:10:53;;;;;;;21.63;11.20;;;;;;;;;;5137845;27;20063;-59
2022/12/18 04:13:29;;;;;;;22.02;10.13;;;;;;;;;;5142683;27;20092;-59
2022/12/18 04:15:55;;;;;;;24.15;10.00;;;;;;;;;;5138123;27;20043;-61
2022/12/18 04:18:21;;;;;;;17.67;9.70;;;;;;;;;;5135855;27;20601;-58
2022/12/18 04:20:47;;;;;;;24.85;12.15;;;;;;;;;;5138757;27;20520;-59
2022/12/18 04:23:13;;;;;;;28.88;12.15;;;;;;;;;;5137092;27;20517;-59
2022/12/18 04:25:39;;;;;;;25.65;11.48;;;;;;;;;;5139116;27;20039;-58
2022/12/18 04:28:05;;;;;;;29.00;11.85;;;;;;;;;;5137782;27;20039;-59
2022/12/18 04:30:31;;;;;;;23.60;10.15;;;;;;;;;;5139652;27;20031;-59
2022/12/18 04:32:57;;;;;;;24.45;10.75;;;;;;;;;;5141705;27;20186;-60
2022/12/18 04:35:23;;;;;;;20.15;10.50;;;;;;;;;;5139731;27;20063;-59
2022/12/18 04:37:50;;;;;;;21.92;10.38;;;;;;;;;;5136274;27;20043;-59
2022/12/18 04:40:16;;;;;;;22.42;11.25;;;;;;;;;;5141402;27;20553;-59
2022/12/18 04:42:42;;;;;;;24.40;10.77;;;;;;;;;;5138299;27;20051;-59
2022/12/18 04:45:08;;;;;;;23.67;10.45;;;;;;;;;;5140404;27;20048;-59
2022/12/18 04:47:34;;;;;;;25.40;11.40;;;;;;;;;;5144593;27;21769;-60
2022/12/18 04:50:00;;;;;;;27.33;12.35;;;;;;;;;;5142322;27;20103;-59
2022/12/18 04:52:27;;;;;;;26.23;11.80;;;;;;;;;;5141282;27;20039;-59
2022/12/18 04:54:53;;;;;;;26.73;12.82;;;;;;;;;;5142577;27;20046;-59
2022/12/18 04:57:19;;;;;;;24.00;11.27;;;;;;;;;;5141690;27;20062;-59
2022/12/18 04:59:45;;;;;;;24.65;12.43;;;;;;;;;;5146689;27;20241;-60
2022/12/18 05:02:11;;;;;;;22.38;10.20;;;;;;;;;;5142762;27;20598;-59
2022/12/18 05:04:37;;;;;;;27.23;11.93;;;;;;;;;;5142781;27;20043;-59
2022/12/18 05:07:04;;;;;;;22.38;11.45;;;;;;;;;;5143350;27;20937;-59
2022/12/18 05:09:30;;;;;;;24.77;11.43;;;;;;;;;;5143534;27;20055;-59
2022/12/18 05:11:56;;;;;;;27.45;11.38;;;;;;;;;;5143965;27;20101;-59
2022/12/18 05:14:22;;;;;;;23.73;11.18;;;;;;;;;;5146359;27;20101;-59
2022/12/18 05:16:49;;;;;;;24.13;10.70;;;;;;;;;;5145504;27;20031;-59
2022/12/18 05:19:15;;;;;;;26.23;11.32;;;;;;;;;;5143284;27;20059;-59
2022/12/18 05:21:41;;;;;;;24.33;12.20;;;;;;;;;;5140910;27;20595;-59
2022/12/18 05:24:07;;;;;;;21.77;11.40;;;;;;;;;;5144439;27;20915;-59
2022/12/18 05:26:33;;;;;;;25.10;10.88;;;;;;;;;;5143534;27;20109;-59
2022/12/18 05:28:59;;;;;;;28.75;11.63;;;;;;;;;;5145304;27;20040;-59
2022/12/18 05:31:25;;;;;;;30.90;11.88;;;;;;;;;;5141775;27;20654;-59
2022/12/18 05:33:51;;;;;;;29.00;11.98;;;;;;;;;;5146538;27;20088;-59
2022/12/18 05:36:18;;;;;;;27.70;11.57;;;;;;;;;;5140899;27;20102;-59
2022/12/18 05:38:44;;;;;;;25.40;12.25;;;;;;;;;;5145382;27;20529;-59
2022/12/18 05:41:10;;;;;;;20.23;9.25;;;;;;;;;;5142203;27;20499;-59
2022/12/18 05:43:37;;;;;;;29.42;12.43;;;;;;;;;;5145498;27;20050;-59
2022/12/18 05:46:06;;;;;;;28.25;12.25;;;;;;;;;;5145071;27;20031;-59
2022/12/18 05:48:32;;;;;;;26.90;12.80;;;;;;;;;;5145326;27;20102;-59
2022/12/18 05:51:04;;;;;;;34.50;12.55;;;;;;;;;;5143366;27;20039;-59
2022/12/18 05:53:30;;;;;;;27.80;12.23;;;;;;;;;;5145866;27;20050;-59
2022/12/18 05:56:00;;;;;;;25.33;10.75;;;;;;;;;;5144591;27;20039;-60
2022/12/18 05:58:26;;;;;;;27.02;12.38;;;;;;;;;;5143516;27;20556;-60
2022/12/18 06:00:52;;;;;;;25.80;11.95;;;;;;;;;;5110683;27;20521;-59
2022/12/18 06:03:18;;;;;;;23.52;11.05;;;;;;;;;;5144915;27;20475;-59
2022/12/18 06:05:45;;;;;;;25.13;10.70;;;;;;;;;;5142957;27;20468;-60
2022/12/18 06:08:12;;;;;;;25.27;10.93;;;;;;;;;;5144815;27;20043;-60
2022/12/18 06:10:38;;;;;;;25.70;11.40;;;;;;;;;;5139842;27;20563;-60
2022/12/18 06:13:04;;;;;;;25.42;11.00;;;;;;;;;;5144832;27;20054;-59
2022/12/18 06:15:30;;;;;;;25.48;11.05;;;;;;;;;;5145584;27;20031;-60
2022/12/18 06:17:56;;;;;;;28.75;11.85;;;;;;;;;;5145087;27;20481;-60
2022/12/18 06:20:23;;;;;;;24.58;11.23;;;;;;;;;;5160433;27;20055;-60
2022/12/18 06:22:49;;;;;;;22.85;9.85;;;;;;;;;;5144913;27;20046;-59
2022/12/18 06:25:15;;;;;;;21.77;10.90;;;;;;;;;;5145509;27;20031;-60
2022/12/18 06:27:42;;;;;;;27.02;11.60;;;;;;;;;;5146586;27;20484;-60
2022/12/18 06:30:08;;;;;;;24.13;12.52;;;;;;;;;;5145054;27;20114;-59
2022/12/18 06:32:34;;;;;;;26.35;10.52;;;;;;;;;;5146633;27;20035;-60
2022/12/18 06:35:00;;;;;;;22.08;11.55;;;;;;;;;;5144883;27;20516;-59
2022/12/18 06:37:26;;;;;;;31.73;11.10;;;;;;;;;;5143480;27;21240;-59
2022/12/18 06:39:53;;;;;;;25.83;11.45;;;;;;;;;;5145607;27;20045;-60
2022/12/18 06:42:22;;;;;;;26.35;11.45;;;;;;;;;;5145726;27;20517;-59
2022/12/18 06:44:48;;;;;;;29.35;10.70;;;;;;;;;;5143787;27;20110;-60
2022/12/18 06:47:14;;;;;;;21.60;11.30;;;;;;;;;;5144884;27;20114;-60
2022/12/18 06:49:40;;;;;;;24.48;10.52;;;;;;;;;;5143728;27;20055;-60
2022/12/18 06:52:06;;;;;;;25.17;9.65;;;;;;;;;;5144666;27;20051;-60
2022/12/18 06:54:32;;;;;;;29.38;10.60;;;;;;;;;;5143374;27;20035;-60
2022/12/18 06:56:59;;;;;;;29.33;11.63;;;;;;;;;;5143475;27;20042;-60
2022/12/18 06:59:25;;;;;;;33.22;11.45;;;;;;;;;;5145317;27;20092;-60
2022/12/18 07:01:51;;;;;;;30.90;12.02;;;;;;;;;;5137843;27;20053;-59
2022/12/18 07:04:17;;;;;;;25.60;9.98;;;;;;;;;;5141787;27;20517;-60
2022/12/18 07:06:43;;;;;;;24.50;11.80;;;;;;;;;;5143804;27;20524;-60
2022/12/18 07:09:09;;;;;;;24.55;10.95;;;;;;;;;;5144080;27;20133;-60
2022/12/18 07:11:35;;;;;;;26.83;11.70;;;;;;;;;;5146010;27;20127;-60
2022/12/18 07:14:01;;;;;;;23.65;11.07;;;;;;;;;;5141608;27;20579;-59
2022/12/18 07:16:30;;;;;;;30.15;10.82;;;;;;;;;;5144170;27;20039;-60
2022/12/18 07:18:56;;;;;;;23.27;13.10;;;;;;;;;;5138498;27;20067;-60
2022/12/18 07:21:23;;;;;;;28.85;11.85;;;;;;;;;;5138119;27;20573;-60
2022/12/18 07:23:49;;;;;;;28.50;12.15;;;;;;;;;;5137574;27;20035;-60
2022/12/18 07:26:17;;;;;;;28.95;11.45;;;;;;;;;;5141878;27;20066;-60
2022/12/18 07:28:43;;;;;;;28.23;10.82;;;;;;;;;;5141969;27;20075;-60
2022/12/18 07:31:11;;;;;;;31.35;12.23;;;;;;;;;;5142892;27;20496;-60
2022/12/18 07:33:37;;;;;;;24.80;10.68;;;;;;;;;;5142161;27;20042;-60
2022/12/18 07:36:05;;;;;;;22.90;11.52;;;;;;;;;;5142791;27;20031;-60
2022/12/18 07:38:31;;;;;;;24.52;10.63;;;;;;;;;;5142621;27;20085;-60
2022/12/18 07:41:05;;;;;;;23.50;11.05;;;;;;;;;;5142193;27;20207;-60
2022/12/18 07:43:31;;;;;;;29.45;10.90;;;;;;;;;;5141489;27;20895;-59
2022/12/18 07:45:57;;;;;;;20.73;10.55;;;;;;;;;;5140151;27;20650;-60
2022/12/18 07:48:23;;;;;;;26.30;10.90;;;;;;;;;;5142691;27;20645;-60
2022/12/18 07:50:49;;;;;;;22.75;10.80;;;;;;;;;;5157686;27;20142;-60
2022/12/18 07:53:15;;;;;;;28.92;10.55;;;;;;;;;;5140391;27;20136;-60
2022/12/18 07:55:42;;;;;;;28.92;13.52;;;;;;;;;;5141850;27;20207;-61
2022/12/18 07:58:08;;;;;;;27.67;12.30;;;;;;;;;;5143727;27;20152;-60
2022/12/18 08:00:34;;;;;;;34.88;13.30;;;;;;;;;;5142828;27;20035;-60
2022/12/18 08:03:01;;;;;;;20.67;10.98;;;;;;;;;;5144613;27;20038;-60
2022/12/18 08:05:27;;;;;;;23.75;12.55;;;;;;;;;;5139885;27;20036;-61
2022/12/18 08:07:54;;;;;;;22.15;10.80;;;;;;;;;;5160156;27;20105;-60
2022/12/18 08:10:20;;;;;;;25.02;13.35;;;;;;;;;;5142471;27;20039;-60
2022/12/18 08:12:49;;;;;;;28.33;13.00;;;;;;;;;;5143157;27;20035;-60
2022/12/18 08:15:15;;;;;;;27.25;11.75;;;;;;;;;;5138715;27;20046;-60
2022/12/18 08:17:41;;;;;;;25.33;11.20;;;;;;;;;;5144937;27;20031;-60
2022/12/18 08:20:08;;;;;;;26.15;11.75;;;;;;;;;;5141227;27;20033;-60
2022/12/18 08:22:38;;;;;;;25.73;12.02;;;;;;;;;;5143234;27;20082;-60
2022/12/18 08:25:05;;;;;;;23.27;13.13;;;;;;;;;;5139913;27;20027;-60
2022/12/18 08:27:31;;;;;;;27.80;12.80;;;;;;;;;;5140040;27;20529;-60
2022/12/18 08:29:57;;;;;;;25.70;11.68;;;;;;;;;;5141841;27;20924;-60
2022/12/18 08:32:24;;;;;;;27.40;13.55;;;;;;;;;;5144023;27;20050;-60
2022/12/18 08:34:50;;;;;;;29.35;13.25;;;;;;;;;;5140645;27;20488;-60
2022/12/18 08:37:16;;;;;;;33.58;13.98;;;;;;;;;;5141567;27;20042;-60
2022/12/18 08:39:42;;;;;;;25.80;11.82;;;;;;;;;;5142679;27;20044;-60
2022/12/18 08:44:52;;;;;;;27.50;11.90;;;;;;;;;;5143726;27;20085;-60
2022/12/18 08:47:18;;;;;;;28.13;12.05;;;;;;;;;;5142585;27;20047;-60
2022/12/18 08:49:45;;;;;;;23.67;12.00;;;;;;;;;;5142981;27;20547;-60
2022/12/18 08:52:11;;;;;;;30.38;13.13;;;;;;;;;;5140046;27;20060;-60
2022/12/18 08:54:37;;;;;;;28.02;11.00;;;;;;;;;;5144098;27;20095;-60
2022/12/18 08:57:03;;;;;;;25.35;12.38;;;;;;;;;;5140800;27;20047;-60
2022/12/18 08:59:29;;;;;;;25.33;12.55;;;;;;;;;;5137262;27;20074;-60
2022/12/18 09:01:55;;;;;;;24.27;11.73;;;;;;;;;;5140167;27;20122;-60
2022/12/18 09:04:22;;;;;;;24.50;11.93;;;;;;;;;;5136235;27;20043;-60
2022/12/18 09:06:48;;;;;;;29.58;13.23;;;;;;;;;;5129676;27;20111;-61
2022/12/18 09:09:14;;;;;;;25.00;13.00;;;;;;;;;;5137826;27;20050;-60
2022/12/18 09:11:40;;;;;;;25.60;12.20;;;;;;;;;;5140126;27;20543;-61
2022/12/18 09:14:06;;;;;;;24.17;11.98;;;;;;;;;;5138267;27;20645;-60
2022/12/18 09:16:34;;;;;;;25.33;11.25;;;;;;;;;;5138065;27;20155;-60
2022/12/18 09:19:01;;;;;;;30.38;13.07;;;;;;;;;;5136866;27;20032;-60
2022/12/18 09:21:29;;;;;;;23.33;12.55;;;;;;;;;;5141742;27;20509;-60
2022/12/18 09:23:56;;;;;;;31.92;13.00;;;;;;;;;;5140484;27;20055;-60
2022/12/18 09:26:22;;;;;;;30.20;12.95;;;;;;;;;;5154702;27;20039;-59
2022/12/18 09:28:48;;;;;;;26.60;12.30;;;;;;;;;;5139152;27;20346;-59
2022/12/18 09:31:15;;;;;;;27.88;13.20;;;;;;;;;;5143032;27;20556;-59
2022/12/18 09:33:41;;;;;;;26.95;14.40;;;;;;;;;;5145662;27;20027;-59
2022/12/18 09:36:08;;;;;;;28.38;13.35;;;;;;;;;;5144309;27;20154;-60
2022/12/18 09:38:34;;;;;;;29.58;13.95;;;;;;;;;;5143359;27;20074;-59
2022/12/18 09:41:03;;;;;;;28.75;15.20;;;;;;;;;;5145372;27;20054;-59
2022/12/18 09:43:35;;;;;;;25.63;12.98;;;;;;;;;;5142752;27;20450;-59
2022/12/18 09:46:01;;;;;;;;;;;;;;;;;;5146278;27;20047;-59
2022/12/18 09:48:38;;;;;;;19.67;10.90;;;;;;;;;;5146490;27;20392;-59
2022/12/18 09:51:10;;;;;;;24.33;12.20;;;;;;;;;;5144244;27;20066;-59
2022/12/18 09:53:39;;;;;;;24.13;12.82;;;;;;;;;;5145585;27;20559;-59
2022/12/18 09:56:05;;;;;;;24.85;11.52;;;;;;;;;;5144097;27;20047;-59
2022/12/18 09:58:44;;;;;;;22.85;11.18;;;;;;;;;;5141387;27;20042;-60
2022/12/18 10:01:18;;;;;;;26.15;10.98;;;;;;;;;;5138612;27;20117;-59
2022/12/18 10:03:45;;;;;;;31.08;12.27;;;;;;;;;;5139463;27;20513;-59
2022/12/18 10:06:29;;;;;;;25.92;11.98;;;;;;;;;;5138804;27;20051;-60
2022/12/18 10:08:55;;;;;;;27.90;11.30;;;;;;;;;;5144205;27;20043;-59
2022/12/18 10:11:21;;;;;;;23.05;11.30;;;;;;;;;;5141539;27;21016;-60
2022/12/18 10:13:52;;;;;;;25.02;12.13;;;;;;;;;;5154639;27;21211;-59
2022/12/18 10:16:18;;;;;;;29.43;10.93;;;;;;;;;;5138945;27;20106;-60
2022/12/18 10:18:44;;;;;;;25.05;11.77;;;;;;;;;;5138508;27;20146;-59
2022/12/18 10:21:13;;;;;;;22.48;12.32;;;;;;;;;;5135656;27;20176;-60
2022/12/18 10:23:44;;;;;;;23.45;11.88;;;;;;;;;;5139239;27;20078;-60
2022/12/18 10:26:11;;;;;;;28.45;13.30;;;;;;;;;;5133487;27;20094;-60
2022/12/18 10:28:39;;;;;;;26.67;12.18;;;;;;;;;;5135182;27;20038;-59
2022/12/18 10:31:15;;;;;;;27.10;11.55;;;;;;;;;;5137476;27;20039;-59
2022/12/18 10:33:41;;;;;;;28.02;13.60;;;;;;;;;;5144466;27;20032;-61
2022/12/18 10:36:08;;;;;;;27.10;11.68;;;;;;;;;;5138667;27;20039;-60
2022/12/18 10:38:34;;;;;;;22.00;10.93;;;;;;;;;;5143468;27;20511;-60
2022/12/18 10:41:03;;;;;;;23.02;11.93;;;;;;;;;;5139684;27;20042;-61
2022/12/18 10:43:33;;;;;;;25.17;12.35;;;;;;;;;;5143176;27;20040;-60
2022/12/18 10:46:14;;;;;;;24.90;11.75;;;;;;;;;;5142065;27;20574;-60
2022/12/18 10:48:50;;;;;;;24.17;11.85;;;;;;;;;;5141176;27;20047;-61
2022/12/18 10:51:22;;;;;;;23.48;11.70;;;;;;;;;;5143970;27;20543;-60
2022/12/18 10:53:56;;;;;;;20.92;10.82;;;;;;;;;;5145228;27;20071;-60
2022/12/18 10:56:22;;;;;;;25.83;12.48;;;;;;;;;;5143251;27;20054;-60
2022/12/18 10:59:00;;;;;;;23.98;11.98;;;;;;;;;;5143015;27;20074;-60
2022/12/18 11:01:26;;;;;;;26.85;12.35;;;;;;;;;;5144928;27;20500;-60
2022/12/18 11:03:55;;;;;;;27.52;12.73;;;;;;;;;;5145623;27;20498;-61
2022/12/18 11:06:24;;;;;;;22.98;11.82;;;;;;;;;;5142701;27;20044;-60
2022/12/18 11:09:19;;;;;;;20.45;10.73;;;;;;;;;;5144609;27;20039;-60
2022/12/18 11:11:59;;;;;;;24.20;10.52;;;;;;;;;;5146090;27;20041;-60
2022/12/18 11:14:25;;;;;;;26.50;13.52;;;;;;;;;;5140887;27;20039;-60
2022/12/18 11:16:51;;;;;;;26.40;15.82;;;;;;;;;;5142194;27;20039;-60
2022/12/18 11:19:31;;;;;;;22.52;13.35;;;;;;;;;;5141532;27;20043;-60
2022/12/18 11:21:57;;;;;;;23.90;13.50;;;;;;;;;;5142583;27;20047;-61
2022/12/18 11:24:26;;;;;;;45.80;19.92;;;;;;;;;;5144679;27;20034;-60
2022/12/18 11:26:52;;;;;;;33.72;15.10;;;;;;;;;;5143282;27;20596;-61
2022/12/18 11:29:23;;;;;;;37.33;15.27;;;;;;;;;;5137405;27;20528;-60
2022/12/18 11:31:49;;;;;;;27.65;12.52;;;;;;;;;;5136745;27;20543;-61
2022/12/18 11:34:30;;;;;;;32.92;15.05;;;;;;;;;;5144296;27;20522;-62
2022/12/18 11:36:58;;;;;;;30.15;13.43;;;;;;;;;;5137522;27;20126;-62
2022/12/18 11:39:37;;;;;;;28.65;15.82;;;;;;;;;;5138769;27;21841;-62
2022/12/18 11:42:09;;;;;;;40.50;15.63;;;;;;;;;;5141510;27;20479;-61
2022/12/18 11:44:47;;;;;;;33.30;15.07;;;;;;;;;;5134412;27;20033;-61
2022/12/18 11:47:19;;;;;;;32.38;13.75;;;;;;;;;;5136598;27;20513;-61
2022/12/18 11:49:48;;;;;;;28.55;13.20;;;;;;;;;;5138825;27;20034;-61
2022/12/18 11:52:20;;;;;;;25.85;12.82;;;;;;;;;;5131447;27;20120;-61
2022/12/18 11:54:49;;;;;;;31.08;13.10;;;;;;;;;;5140731;27;20130;-61
2022/12/18 11:57:15;;;;;;;23.52;11.85;;;;;;;;;;5140344;27;20063;-61
2022/12/18 11:59:47;;;;;;;29.75;13.70;;;;;;;;;;5138825;27;20046;-60
2022/12/18 12:02:13;;;;;;;;;;;;;;;;;;5138300;27;20049;-61
2022/12/18 12:05:11;;;;;;;30.88;11.30;;;;;;;;;;5140492;27;19926;-61
2022/12/18 12:07:43;;;;;;;27.70;12.15;;;;;;;;;;5099280;27;20142;-61
2022/12/18 12:10:17;;;;;;;24.88;12.50;;;;;;;;;;5134967;27;20544;-61
2022/12/18 12:12:46;;;;;;;23.63;13.23;;;;;;;;;;5140008;27;20536;-61
2022/12/18 12:15:12;;;;;;;24.38;13.43;;;;;;;;;;5136016;27;20825;-61
2022/12/18 12:17:44;;;;;;;27.45;12.98;;;;;;;;;;5132590;27;20042;-61
2022/12/18 12:20:19;;;;;;;26.05;12.75;;;;;;;;;;5134841;27;20048;-61
2022/12/18 12:22:55;;;;;;;20.90;12.55;;;;;;;;;;5137512;27;20210;-61
2022/12/18 12:25:28;;;;;;;23.85;12.35;;;;;;;;;;5139493;27;20045;-61
2022/12/18 12:28:11;;;;;;;22.40;10.73;;;;;;;;;;5133282;27;20879;-61
2022/12/18 12:30:47;;;;;;;33.13;14.38;;;;;;;;;;5138089;27;20067;-61
2022/12/18 12:33:19;;;;;;;28.17;14.55;;;;;;;;;;5139163;27;20038;-61
2022/12/18 12:35:45;;;;;;;24.45;11.23;;;;;;;;;;5137962;27;20043;-61
2022/12/18 12:38:14;;;;;;;17.80;9.75;;;;;;;;;;5141158;27;20134;-61
2022/12/18 12:40:44;;;;;;;21.38;11.70;;;;;;;;;;5142217;27;20052;-61
2022/12/18 12:43:23;;;;;;;25.33;11.32;;;;;;;;;;5138582;27;20042;-61
2022/12/18 12:46:15;;;;;;;27.42;11.60;;;;;;;;;;5139119;27;20100;-61
2022/12/18 12:48:44;;;;;;;26.58;12.27;;;;;;;;;;5131656;27;20055;-61
2022/12/18 12:51:27;;;;;;;25.13;13.32;;;;;;;;;;5138872;27;20496;-60
2022/12/18 12:53:55;;;;;;;23.08;11.45;;;;;;;;;;5140929;27;20041;-60
2022/12/18 12:56:21;;;;;;;22.92;12.50;;;;;;;;;;5140706;27;20057;-60
2022/12/18 12:58:47;;;;;;;23.75;11.40;;;;;;;;;;5139404;27;20035;-61
2022/12/18 13:01:33;;;;;;;21.13;11.68;;;;;;;;;;5143701;27;20063;-60
2022/12/18 13:04:08;;;;;;;25.27;13.20;;;;;;;;;;5138839;27;20607;-60
2022/12/18 13:06:41;;;;;;;20.92;10.63;;;;;;;;;;5139256;27;20055;-60
2022/12/18 13:09:07;;;;;;;29.08;13.07;;;;;;;;;;5141233;27;20073;-60
2022/12/18 13:14:31;;;;;;;32.40;14.88;;;;;;;;;;5138943;27;20504;-61
2022/12/18 13:17:20;;;;;;;28.45;13.95;;;;;;;;;;5141652;27;20039;-61
2022/12/18 13:20:03;;;;;;;21.35;10.93;;;;;;;;;;5137641;27;20052;-61
2022/12/18 13:22:32;;;;;;;24.95;12.38;;;;;;;;;;5141412;27;20044;-61
2022/12/18 13:24:58;;;;;;;21.58;11.38;;;;;;;;;;5135638;27;20039;-60
2022/12/18 13:27:43;;;;;;;20.42;11.55;;;;;;;;;;5142795;27;20042;-61
2022/12/18 13:30:27;;;;;;;27.17;11.77;;;;;;;;;;5136818;27;20078;-61
2022/12/18 13:33:12;;;;;;;26.27;13.85;;;;;;;;;;5142340;27;20039;-61
2022/12/18 13:35:39;;;;;;;87.13;36.50;;;;;;;;;;5141720;27;20035;-60
2022/12/18 13:38:21;;;;;;;58.22;28.60;;;;;;;;;;5140860;27;20586;-61
2022/12/18 13:40:47;;;;;;;44.90;24.65;;;;;;;;;;5137968;27;20046;-60
2022/12/18 13:43:19;;;;;;;38.60;20.20;;;;;;;;;;5138528;27;20383;-61
2022/12/18 13:45:45;;;;;;;;;;;;;;;;;;5139239;27;20038;-61
2022/12/18 13:48:16;;;;;;;23.70;12.07;;;;;;;;;;5144112;27;19922;-60
2022/12/18 13:50:42;;;;;;;26.20;12.20;;;;;;;;;;5140228;27;20035;-61
2022/12/18 13:53:20;;;;;;;24.05;11.68;;;;;;;;;;5140687;27;20039;-60
2022/12/18 13:55:46;;;;;;;24.10;11.68;;;;;;;;;;5144203;27;20073;-60
2022/12/18 13:58:13;;;;;;;17.75;10.98;;;;;;;;;;5147366;27;20035;-60
2022/12/18 14:00:43;;;;;;;20.70;11.13;;;;;;;;;;5145643;27;20047;-61
2022/12/18 14:03:18;;;;;;;21.02;11.20;;;;;;;;;;5141650;27;21298;-61
2022/12/18 14:05:46;;;;;;;21.13;10.35;;;;;;;;;;5142723;27;20066;-61
2022/12/18 14:08:14;;;;;;;24.65;11.90;;;;;;;;;;5146097;27;20520;-61
2022/12/18 14:10:41;;;;;;;18.50;9.73;;;;;;;;;;5145887;27;20072;-61
2022/12/18 14:13:08;;;;;;;25.17;12.43;;;;;;;;;;5145726;27;20081;-60
2022/12/18 14:15:37;;;;;;;21.75;11.63;;;;;;;;;;5146278;27;20039;-60
2022/12/18 14:18:09;;;;;;;17.60;9.10;;;;;;;;;;5143558;27;20138;-61
2022/12/18 14:20:36;;;;;;;22.60;12.00;;;;;;;;;;5143804;27;20065;-61
2022/12/18 14:23:02;;;;;;;20.42;10.38;;;;;;;;;;5145889;27;20567;-62
2022/12/18 14:25:29;;;;;;;20.75;10.98;;;;;;;;;;5146396;27;20035;-62
2022/12/18 14:28:10;;;;;;;21.67;11.13;;;;;;;;;;5146671;27;20043;-61
2022/12/18 14:30:40;;;;;;;22.50;11.98;;;;;;;;;;5146064;27;20589;-62
2022/12/18 14:33:09;;;;;;;20.92;11.25;;;;;;;;;;5145585;27;20067;-62
2022/12/18 14:35:37;;;;;;;19.63;10.60;;;;;;;;;;5146307;27;20043;-61
2022/12/18 14:38:29;;;;;;;22.48;12.00;;;;;;;;;;5144540;27;20039;-61